< < Back
Terminal Aerodrome Forecast


Current Version              Previous Versions:   1  2  3  4  5  6  7  8  9  

Terminal Aerodrome Forecast

502
FTUS42 KJAX 240500
TAFJAX
TAF
KJAX 240521Z 2406/2506 00000KT P6SM SCT250
     FM241400 03005KT P6SM SCT025 SCT250
     FM241700 05008KT P6SM SCT035 BKN250
     FM250200 00000KT P6SM FEW250=



Latest METAR

791
SAUS80 KWBC 250800 CCA
MTRJAX
METAR KJAX 250756Z 00000KT 10SM CLR 09/09 A2998 RMK AO2 SLP151
T00940094


USA.gov is the U.S. government's official web portal to all federal, state and local government web resources and services.